createdAt,value
2019-03-17T00:00:29.885Z,13.72
2019-03-17T00:03:03.546Z,13.14
2019-03-17T00:05:37.796Z,15.43
2019-03-17T00:08:11.270Z,17.82
2019-03-17T00:10:44.899Z,16.55
2019-03-17T00:13:18.659Z,15.25
2019-03-17T00:15:59.825Z,14.35
2019-03-17T00:18:38.492Z,13.63
2019-03-17T00:21:14.209Z,13.08
2019-03-17T00:23:47.680Z,15.42
2019-03-17T00:26:21.500Z,18.98
2019-03-17T00:28:56.042Z,18.52
2019-03-17T00:31:29.542Z,16.80
2019-03-17T00:34:03.253Z,15.55
2019-03-17T00:36:37.127Z,14.68
2019-03-17T00:39:10.668Z,14.00
2019-03-17T00:41:44.265Z,13.50
2019-03-17T00:44:17.816Z,13.04
2019-03-17T00:46:51.331Z,15.43
2019-03-17T00:49:26.173Z,19.08
2019-03-17T00:51:59.672Z,18.67
2019-03-17T00:54:33.229Z,16.93
2019-03-17T00:57:07.289Z,15.65
2019-03-17T00:59:40.920Z,14.75
2019-03-17T01:02:14.310Z,14.07
2019-03-17T01:04:56.114Z,13.53
2019-03-17T01:07:23.226Z,13.04
2019-03-17T01:09:57.605Z,15.43
2019-03-17T01:12:31.174Z,18.94
2019-03-17T01:15:04.705Z,18.38
2019-03-17T01:17:38.229Z,16.69
2019-03-17T01:20:11.706Z,15.52
2019-03-17T01:22:45.071Z,14.63
2019-03-17T01:25:18.415Z,13.96
2019-03-17T01:27:51.811Z,13.42
2019-03-17T01:30:25.222Z,12.96
2019-03-17T01:32:59.794Z,15.52
2019-03-17T01:35:33.130Z,19.48
2019-03-17T01:38:06.635Z,19.04
2019-03-17T01:40:40.170Z,17.13
2019-03-17T01:43:13.537Z,15.84
2019-03-17T01:45:48.249Z,14.94
2019-03-17T01:48:21.592Z,14.27
2019-03-17T01:50:55.131Z,13.73
2019-03-17T01:53:28.540Z,13.25
2019-03-17T01:56:01.936Z,15.32
2019-03-17T01:58:35.303Z,19.11
2019-03-17T02:01:11.758Z,18.86
2019-03-17T02:03:44.845Z,17.06
2019-03-17T02:06:19.247Z,15.81
2019-03-17T02:08:53.328Z,14.90
2019-03-17T02:11:26.902Z,14.22
2019-03-17T02:14:00.728Z,13.67
2019-03-17T02:16:34.246Z,13.20
2019-03-17T02:19:07.748Z,12.77
2019-03-17T02:21:41.350Z,15.17
2019-03-17T02:24:14.775Z,18.79
2019-03-17T02:26:48.283Z,18.45
2019-03-17T02:29:21.647Z,16.74
2019-03-17T02:31:55.052Z,15.49
2019-03-17T02:34:28.458Z,14.59
2019-03-17T02:37:02.028Z,13.94
2019-03-17T02:39:35.741Z,13.42
2019-03-17T02:42:09.290Z,12.94
2019-03-17T02:44:42.714Z,15.11
2019-03-17T02:47:16.431Z,18.38
2019-03-17T02:49:49.770Z,17.42
2019-03-17T02:52:23.489Z,15.93
2019-03-17T02:54:57.282Z,14.87
2019-03-17T02:57:30.651Z,14.10
2019-03-17T03:00:04.093Z,13.53
2019-03-17T03:02:38.561Z,13.04
2019-03-17T03:05:12.106Z,12.63
2019-03-17T03:07:45.515Z,14.98
2019-03-17T03:10:19.353Z,18.83
2019-03-17T03:12:52.805Z,18.41
2019-03-17T03:15:26.301Z,16.69
2019-03-17T03:17:59.879Z,15.46
2019-03-17T03:20:33.450Z,14.59
2019-03-17T03:23:08.413Z,13.93
2019-03-17T03:25:42.825Z,13.39
2019-03-17T03:28:16.305Z,12.93
2019-03-17T03:30:49.804Z,12.56
2019-03-17T03:33:23.368Z,12.20
2019-03-17T03:36:09.765Z,14.76
2019-03-17T03:38:31.997Z,18.51
2019-03-17T03:41:05.362Z,18.08
2019-03-17T03:43:39.371Z,16.42
2019-03-17T03:46:12.877Z,15.19
2019-03-17T03:48:46.343Z,14.38
2019-03-17T03:51:20.473Z,13.76
2019-03-17T03:53:55.110Z,13.24
2019-03-17T03:56:28.612Z,12.80
2019-03-17T03:59:02.067Z,12.44
2019-03-17T04:01:35.815Z,12.07
2019-03-17T04:04:09.225Z,14.56
2019-03-17T04:06:42.689Z,18.33
2019-03-17T04:09:16.072Z,18.08
2019-03-17T04:11:49.564Z,16.35
2019-03-17T04:14:23.051Z,15.13
2019-03-17T04:16:56.525Z,14.27
2019-03-17T04:19:29.918Z,13.65
2019-03-17T04:22:03.710Z,13.13
2019-03-17T04:24:37.243Z,12.69
2019-03-17T04:27:10.644Z,12.31
2019-03-17T04:29:44.479Z,11.94
2019-03-17T04:32:18.260Z,14.08
2019-03-17T04:34:51.734Z,17.90
2019-03-17T04:37:25.253Z,17.65
2019-03-17T04:39:58.752Z,16.00
2019-03-17T04:42:32.642Z,14.83
2019-03-17T04:45:06.663Z,13.97
2019-03-17T04:47:40.159Z,13.37
2019-03-17T04:50:13.592Z,12.84
2019-03-17T04:52:46.978Z,12.45
2019-03-17T04:55:20.406Z,12.04
2019-03-17T04:57:54.160Z,11.72
2019-03-17T05:00:28.688Z,14.07
2019-03-17T05:03:02.321Z,17.90
2019-03-17T05:05:35.829Z,17.59
2019-03-17T05:08:09.277Z,15.98
2019-03-17T05:10:42.701Z,14.79
2019-03-17T05:13:16.128Z,13.96
2019-03-17T05:15:49.563Z,13.37
2019-03-17T05:18:23.000Z,12.88
2019-03-17T05:20:56.470Z,12.45
2019-03-17T05:23:30.340Z,12.08
2019-03-17T05:26:03.894Z,11.74
2019-03-17T05:28:37.747Z,11.45
2019-03-17T05:31:11.278Z,14.03
2019-03-17T05:33:44.820Z,17.76
2019-03-17T05:36:18.246Z,17.34
2019-03-17T05:38:51.837Z,15.72
2019-03-17T05:41:25.689Z,14.56
2019-03-17T05:43:59.133Z,13.75
2019-03-17T05:46:32.678Z,13.17
2019-03-17T05:49:06.137Z,12.67
2019-03-17T05:51:41.029Z,12.27
2019-03-17T05:54:15.433Z,11.93
2019-03-17T05:56:48.925Z,14.25
2019-03-17T05:59:22.374Z,18.05
2019-03-17T06:02:22.811Z,17.69
2019-03-17T06:04:56.365Z,15.80
2019-03-17T06:07:29.947Z,14.70
2019-03-17T06:10:03.846Z,13.92
2019-03-17T06:12:37.820Z,13.34
2019-03-17T06:15:12.486Z,12.90
2019-03-17T06:17:45.980Z,12.51
2019-03-17T06:20:19.412Z,12.16
2019-03-17T06:22:52.888Z,14.51
2019-03-17T06:25:26.724Z,17.96
2019-03-17T06:28:00.257Z,16.99
2019-03-17T06:30:34.596Z,15.56
2019-03-17T06:33:08.659Z,14.59
2019-03-17T06:35:42.701Z,13.86
2019-03-17T06:38:16.589Z,13.41
2019-03-17T06:40:51.067Z,13.01
2019-03-17T06:43:25.415Z,12.67
2019-03-17T06:45:59.979Z,12.38
2019-03-17T06:52:27.911Z,17.06
2019-03-17T07:21:22.524Z,17.00
2019-03-17T07:23:57.791Z,15.72
2019-03-17T07:26:32.313Z,15.04
2019-03-17T07:29:07.861Z,14.62
2019-03-17T07:31:41.579Z,14.32
2019-03-17T07:34:15.055Z,14.10
2019-03-17T07:37:15.771Z,13.93
2019-03-17T07:40:23.712Z,13.80
2019-03-17T07:43:35.815Z,13.60
2019-03-17T07:46:41.842Z,15.89
2019-03-17T08:06:38.323Z,14.13
2019-03-17T08:09:44.509Z,14.00
2019-03-17T08:12:25.935Z,13.96
2019-03-17T08:15:16.558Z,13.90
2019-03-17T08:17:53.041Z,13.87
2019-03-17T08:20:27.133Z,13.87
2019-03-17T08:23:00.672Z,13.89
2019-03-17T08:25:35.397Z,13.93
2019-03-17T08:28:16.009Z,13.97
2019-03-17T08:30:53.441Z,14.05
2019-03-17T08:33:29.352Z,14.11
2019-03-17T08:36:03.697Z,14.17
2019-03-17T08:38:37.364Z,14.24
2019-03-17T08:49:18.989Z,14.53
2019-03-17T08:51:52.306Z,14.59
2019-03-17T08:54:31.119Z,14.68
2019-03-17T08:57:04.722Z,14.73
2019-03-17T08:59:38.079Z,14.79
2019-03-17T09:02:14.020Z,14.82
2019-03-17T09:04:58.528Z,14.87
2019-03-17T09:07:45.427Z,14.94
2019-03-17T09:10:22.658Z,14.98
2019-03-17T09:12:56.013Z,15.07
2019-03-17T09:15:38.321Z,15.13
2019-03-17T09:18:13.516Z,15.19
2019-03-17T09:20:47.180Z,15.24
2019-03-17T09:23:20.350Z,15.31
2019-03-17T09:25:53.524Z,15.39
2019-03-17T09:28:32.282Z,15.45
2019-03-17T09:31:07.609Z,15.49
2019-03-17T09:33:41.299Z,15.53
2019-03-17T09:36:14.651Z,15.61
2019-03-17T09:38:47.912Z,15.66
2019-03-17T09:41:30.948Z,15.73
2019-03-17T09:44:09.798Z,15.79
2019-03-17T09:46:44.188Z,15.84
2019-03-17T09:49:20.849Z,15.93
2019-03-17T09:51:57.757Z,15.97
2019-03-17T09:54:33.761Z,16.06
2019-03-17T09:57:07.044Z,16.14
2019-03-17T09:59:41.822Z,16.21
2019-03-17T10:02:15.310Z,16.29
2019-03-17T10:04:48.512Z,16.32
2019-03-17T10:07:22.727Z,16.38
2019-03-17T10:09:56.314Z,16.42
2019-03-17T10:12:29.665Z,16.49
2019-03-17T10:15:02.944Z,16.58
2019-03-17T10:17:36.474Z,16.60
2019-03-17T10:20:13.833Z,16.59
2019-03-17T10:22:46.972Z,16.63
2019-03-17T10:25:20.105Z,16.60
2019-03-17T10:27:53.229Z,16.64
2019-03-17T10:30:26.589Z,16.66
2019-03-17T10:33:01.446Z,16.73
2019-03-17T10:35:34.688Z,16.79
2019-03-17T10:38:07.893Z,16.86
2019-03-17T10:40:41.053Z,16.89
2019-03-17T10:43:15.230Z,17.01
2019-03-17T10:45:48.452Z,17.08
2019-03-17T10:48:21.689Z,17.15
2019-03-17T10:50:54.941Z,17.19
2019-03-17T10:53:28.185Z,17.22
2019-03-17T10:56:01.340Z,17.31
2019-03-17T10:58:34.426Z,17.34
2019-03-17T11:01:07.674Z,17.39
2019-03-17T11:03:41.919Z,17.43
2019-03-17T11:06:15.352Z,17.48
2019-03-17T11:08:49.023Z,17.53
2019-03-17T11:11:26.651Z,17.59
2019-03-17T11:17:21.696Z,17.72
2019-03-17T11:19:55.591Z,17.77
2019-03-17T11:22:31.615Z,17.82
2019-03-17T11:25:05.857Z,17.87
2019-03-17T11:27:41.819Z,17.94
2019-03-17T11:30:15.085Z,17.99
2019-03-17T11:32:48.208Z,18.01
2019-03-17T11:35:22.314Z,18.07
2019-03-17T11:37:55.335Z,18.15
2019-03-17T11:40:28.258Z,18.20
2019-03-17T11:43:01.770Z,18.28
2019-03-17T11:45:35.680Z,18.33
2019-03-17T11:48:08.691Z,18.39
2019-03-17T11:50:41.755Z,18.46
2019-03-17T11:53:16.275Z,18.54
2019-03-17T11:55:49.790Z,18.63
2019-03-17T11:58:26.575Z,18.72
2019-03-17T12:01:02.070Z,18.79
2019-03-17T12:03:35.273Z,18.86
2019-03-17T12:06:08.869Z,18.91
2019-03-17T12:08:43.015Z,18.95
2019-03-17T12:11:16.344Z,18.95
2019-03-17T12:13:49.527Z,18.94
2019-03-17T12:16:23.548Z,18.94
2019-03-17T12:18:57.630Z,18.97
2019-03-17T12:21:30.764Z,18.97
2019-03-17T12:24:04.035Z,18.98
2019-03-17T12:26:38.326Z,19.01
2019-03-17T12:29:11.824Z,19.01
2019-03-17T12:31:45.010Z,19.04
2019-03-17T12:34:27.797Z,19.05
2019-03-17T12:36:52.989Z,19.10
2019-03-17T12:39:26.081Z,19.11
2019-03-17T12:41:59.210Z,19.08
2019-03-17T12:44:33.723Z,19.10
2019-03-17T12:47:07.221Z,19.10
2019-03-17T12:49:40.335Z,19.10
2019-03-17T12:52:13.852Z,19.10
2019-03-17T12:54:47.953Z,19.14
2019-03-17T12:57:21.020Z,19.12
2019-03-17T12:59:54.204Z,19.12
2019-03-17T13:02:27.340Z,19.15
2019-03-17T13:05:00.471Z,19.18
2019-03-17T13:07:34.457Z,19.18
2019-03-17T13:10:15.715Z,19.17
2019-03-17T13:12:43.667Z,19.22
2019-03-17T13:15:16.730Z,19.22
2019-03-17T13:17:49.839Z,19.27
2019-03-17T13:20:22.875Z,19.25
2019-03-17T13:22:55.956Z,19.28
2019-03-17T13:25:29.066Z,19.28
2019-03-17T13:28:02.200Z,19.27
2019-03-17T13:30:35.358Z,19.27
2019-03-17T13:33:08.862Z,19.27
2019-03-17T13:35:41.949Z,19.28
2019-03-17T13:38:16.041Z,19.25
2019-03-17T13:40:49.286Z,19.25
2019-03-17T13:43:22.330Z,19.25
2019-03-17T13:45:55.490Z,19.24
2019-03-17T13:48:28.577Z,19.25
2019-03-17T13:51:02.342Z,19.24
2019-03-17T13:53:35.502Z,19.21
2019-03-17T13:56:08.978Z,19.18
2019-03-17T13:58:42.055Z,19.18
2019-03-17T14:01:15.066Z,19.18
2019-03-17T14:03:47.943Z,19.15
2019-03-17T14:06:20.790Z,19.12
2019-03-17T14:08:54.175Z,19.07
2019-03-17T14:11:27.083Z,19.07
2019-03-17T14:14:00.263Z,19.05
2019-03-17T14:16:36.338Z,19.00
2019-03-17T14:19:11.088Z,19.00
2019-03-17T14:21:44.250Z,18.95
2019-03-17T14:24:17.437Z,18.95
2019-03-17T14:26:50.672Z,18.88
2019-03-17T14:29:24.035Z,18.84
2019-03-17T14:31:57.122Z,18.79
2019-03-17T14:34:30.204Z,18.75
2019-03-17T14:37:03.320Z,18.70
2019-03-17T14:39:36.342Z,18.63
2019-03-17T14:42:09.447Z,18.55
2019-03-17T14:44:42.735Z,18.49
2019-03-17T14:47:15.918Z,18.42
2019-03-17T14:49:48.990Z,18.35
2019-03-17T14:52:22.128Z,18.29
2019-03-17T14:54:55.223Z,18.25
2019-03-17T14:57:28.360Z,18.18
2019-03-17T15:00:01.477Z,18.10
2019-03-17T15:02:34.697Z,18.01
2019-03-17T15:05:08.572Z,17.99
2019-03-17T15:07:41.763Z,17.91
2019-03-17T15:10:16.983Z,17.86
2019-03-17T15:12:51.595Z,17.77
2019-03-17T15:15:24.729Z,17.74
2019-03-17T15:17:57.768Z,17.69
2019-03-17T15:20:31.950Z,17.65
2019-03-17T15:23:05.550Z,17.62
2019-03-17T15:25:39.053Z,17.55
2019-03-17T15:28:23.563Z,17.46
2019-03-17T15:31:10.973Z,17.42
2019-03-17T15:33:37.233Z,17.35
2019-03-17T15:36:11.423Z,17.29
2019-03-17T15:38:47.273Z,17.24
2019-03-17T15:41:26.635Z,17.19
2019-03-17T15:44:05.390Z,17.11
2019-03-17T15:46:39.867Z,17.07
2019-03-17T15:49:14.529Z,17.00
2019-03-17T15:51:48.081Z,16.91
2019-03-17T15:54:21.749Z,16.86
2019-03-17T15:56:55.674Z,16.79
2019-03-17T15:59:28.977Z,16.74
2019-03-17T16:02:03.695Z,16.67
2019-03-17T16:04:37.245Z,16.60
2019-03-17T16:07:10.729Z,16.55
2019-03-17T16:09:44.483Z,16.51
2019-03-17T16:12:17.962Z,16.42
2019-03-17T16:14:51.567Z,16.38
2019-03-17T16:17:25.133Z,16.36
2019-03-17T16:19:58.751Z,16.29
2019-03-17T16:22:32.296Z,16.24
2019-03-17T16:25:07.310Z,16.18
2019-03-17T16:27:40.747Z,16.13
2019-03-17T16:30:20.474Z,16.08
2019-03-17T16:32:57.038Z,16.03
2019-03-17T16:35:30.597Z,15.98
2019-03-17T16:38:04.140Z,15.93
2019-03-17T16:40:43.210Z,15.90
2019-03-17T16:43:20.477Z,15.86
2019-03-17T16:46:20.836Z,15.76
2019-03-17T17:10:07.333Z,15.32
2019-03-17T17:20:17.611Z,15.01
2019-03-17T17:26:36.535Z,14.69
2019-03-17T17:29:10.232Z,14.49
2019-03-17T17:32:00.037Z,14.29
2019-03-17T17:34:33.291Z,14.08
2019-03-17T17:37:06.608Z,13.89
2019-03-17T17:39:39.817Z,13.66
2019-03-17T17:42:29.305Z,13.49
2019-03-17T17:45:10.206Z,13.28
2019-03-17T17:47:44.548Z,13.08
2019-03-17T17:50:18.599Z,12.87
2019-03-17T17:52:51.969Z,12.70
2019-03-17T17:55:25.210Z,12.51
2019-03-17T17:57:58.485Z,12.35
2019-03-17T18:00:35.277Z,12.20
2019-03-17T18:03:09.701Z,12.01
2019-03-17T18:05:43.198Z,11.91
2019-03-17T18:08:16.647Z,11.76
2019-03-17T18:10:50.021Z,11.65
2019-03-17T18:13:23.319Z,11.55
2019-03-17T18:15:56.617Z,11.46
2019-03-17T18:18:29.859Z,11.32
2019-03-17T18:21:03.477Z,11.22
2019-03-17T18:23:36.848Z,11.12
2019-03-17T18:26:10.451Z,11.03
2019-03-17T18:28:43.844Z,10.97
2019-03-17T18:32:58.898Z,10.87
2019-03-17T18:55:20.778Z,14.90
2019-03-17T19:02:38.749Z,12.93
2019-03-17T19:06:34.140Z,12.28
2019-03-17T19:09:35.224Z,11.86
2019-03-17T19:12:12.796Z,11.61
2019-03-17T19:14:46.613Z,11.37
2019-03-17T19:17:22.095Z,11.15
2019-03-17T19:20:02.459Z,13.75
2019-03-17T19:22:36.799Z,17.61
2019-03-17T19:25:18.755Z,17.39
2019-03-17T19:27:52.774Z,15.79
2019-03-17T19:30:27.284Z,14.76
2019-03-17T19:33:01.281Z,14.03
2019-03-17T19:35:35.165Z,13.49
2019-03-17T19:38:09.622Z,13.06
2019-03-17T19:40:45.447Z,12.69
2019-03-17T19:43:19.047Z,12.37
2019-03-17T19:45:52.757Z,12.07
2019-03-17T19:48:27.432Z,11.80
2019-03-17T19:51:01.588Z,11.56
2019-03-17T19:53:35.420Z,11.35
2019-03-17T19:56:08.923Z,13.45
2019-03-17T19:58:43.443Z,17.28
2019-03-17T20:01:19.900Z,17.18
2019-03-17T20:03:54.450Z,15.61
2019-03-17T20:06:28.144Z,14.51
2019-03-17T20:09:02.260Z,13.79
2019-03-17T20:11:36.857Z,13.25
2019-03-17T20:14:10.691Z,12.80
2019-03-17T20:16:44.461Z,12.44
2019-03-17T20:19:17.907Z,12.13
2019-03-17T20:21:51.490Z,11.86
2019-03-17T20:24:25.160Z,11.58
2019-03-17T20:26:58.737Z,11.32
2019-03-17T20:29:32.417Z,11.11
2019-03-17T20:32:06.168Z,13.43
2019-03-17T20:34:40.017Z,17.28
2019-03-17T20:37:13.543Z,17.04
2019-03-17T20:39:47.091Z,15.53
2019-03-17T20:42:21.070Z,14.43
2019-03-17T20:44:55.521Z,13.66
2019-03-17T20:47:29.070Z,13.13
2019-03-17T20:50:02.660Z,12.70
2019-03-17T20:52:36.140Z,12.32
2019-03-17T20:55:09.892Z,12.00
2019-03-17T20:57:43.395Z,11.70
2019-03-17T21:00:17.003Z,11.44
2019-03-17T21:02:50.928Z,11.18
2019-03-17T21:05:24.443Z,10.93
2019-03-17T21:07:58.463Z,10.69
2019-03-17T21:10:32.121Z,13.08
2019-03-17T21:13:09.390Z,16.82
2019-03-17T21:15:42.520Z,16.53
2019-03-17T21:18:15.701Z,14.96
2019-03-17T21:20:48.861Z,13.92
2019-03-17T21:23:22.106Z,13.21
2019-03-17T21:25:55.297Z,12.67
2019-03-17T21:28:28.560Z,12.25
2019-03-17T21:31:01.948Z,11.87
2019-03-17T21:33:35.120Z,11.52
2019-03-17T21:36:08.316Z,11.24
2019-03-17T21:38:41.465Z,10.97
2019-03-17T21:41:14.586Z,10.72
2019-03-17T21:43:58.932Z,13.03
2019-03-17T21:46:22.547Z,16.76
2019-03-17T21:48:57.232Z,16.53
2019-03-17T21:51:30.384Z,15.03
2019-03-17T21:54:03.531Z,13.92
2019-03-17T21:56:36.664Z,13.20
2019-03-17T21:59:09.806Z,12.67
2019-03-17T22:01:42.930Z,12.24
2019-03-17T22:04:16.160Z,11.87
2019-03-17T22:06:49.369Z,11.51
2019-03-17T22:09:22.471Z,11.21
2019-03-17T22:11:56.511Z,10.97
2019-03-17T22:14:29.650Z,10.73
2019-03-17T22:17:02.767Z,10.49
2019-03-17T22:19:35.921Z,13.01
2019-03-17T22:22:09.205Z,16.29
2019-03-17T22:24:42.394Z,15.42
2019-03-17T22:27:15.535Z,14.10
2019-03-17T22:29:49.056Z,13.18
2019-03-17T22:32:22.531Z,12.55
2019-03-17T22:34:55.686Z,12.07
2019-03-17T22:37:28.874Z,11.69
2019-03-17T22:40:02.092Z,11.34
2019-03-17T22:42:35.264Z,11.04
2019-03-17T22:45:09.069Z,10.78
2019-03-17T22:47:42.242Z,10.51
2019-03-17T22:50:15.480Z,12.88
2019-03-17T22:52:48.614Z,16.53
2019-03-17T22:55:21.769Z,16.08
2019-03-17T22:57:54.952Z,14.63
2019-03-17T23:00:44.785Z,13.59
2019-03-17T23:03:19.119Z,12.82
2019-03-17T23:05:52.407Z,12.29
2019-03-17T23:08:25.748Z,11.86
2019-03-17T23:10:59.090Z,11.51
2019-03-17T23:13:32.565Z,11.21
2019-03-17T23:16:05.830Z,10.91
2019-03-17T23:18:39.151Z,10.68
2019-03-17T23:21:12.767Z,10.41
2019-03-17T23:23:46.917Z,12.72
2019-03-17T23:26:20.201Z,16.44
2019-03-17T23:28:53.511Z,16.08
2019-03-17T23:31:26.753Z,14.59
2019-03-17T23:34:00.131Z,13.49
2019-03-17T23:36:33.410Z,12.80
2019-03-17T23:39:07.940Z,12.28
2019-03-17T23:41:41.227Z,11.84
2019-03-17T23:44:14.608Z,11.45
2019-03-17T23:46:47.886Z,11.14
2019-03-17T23:49:21.311Z,10.87
2019-03-17T23:51:55.672Z,10.59
2019-03-17T23:54:29.167Z,10.34
2019-03-17T23:57:02.474Z,10.14
2019-03-17T23:59:36.028Z,12.59
